createdAt,value
2019-02-15T00:01:27.471Z,5.80
2019-02-15T00:03:59.742Z,5.40
2019-02-15T00:06:31.963Z,5.47
2019-02-15T00:09:04.861Z,5.37
2019-02-15T00:11:37.090Z,5.55
2019-02-15T00:14:09.346Z,5.55
2019-02-15T00:16:41.587Z,5.17
2019-02-15T00:19:15.483Z,5.53
2019-02-15T00:21:47.726Z,4.80
2019-02-15T00:24:19.987Z,6.03
2019-02-15T00:26:52.228Z,5.50
2019-02-15T00:29:24.473Z,5.47
2019-02-15T00:31:56.727Z,5.55
2019-02-15T00:34:29.000Z,5.25
2019-02-15T00:37:01.247Z,5.92
2019-02-15T00:39:33.499Z,5.35
2019-02-15T00:42:05.729Z,5.40
2019-02-15T00:44:37.975Z,5.80
2019-02-15T00:47:17.662Z,5.42
2019-02-15T00:49:51.363Z,5.93
2019-02-15T00:52:43.182Z,6.42
2019-02-15T00:55:25.784Z,6.12
2019-02-15T00:58:11.711Z,6.28
2019-02-15T01:00:49.667Z,6.55
2019-02-15T01:03:35.674Z,6.55
2019-02-15T01:06:12.209Z,6.90
2019-02-15T01:08:49.027Z,6.45
2019-02-15T01:11:22.907Z,6.33
2019-02-15T01:13:55.152Z,5.45
2019-02-15T01:16:27.394Z,4.83
2019-02-15T01:18:59.626Z,4.92
2019-02-15T01:21:31.882Z,5.00
2019-02-15T01:24:04.135Z,5.35
2019-02-15T01:26:38.027Z,4.83
2019-02-15T01:29:14.866Z,4.60
2019-02-15T01:31:57.732Z,4.75
2019-02-15T01:34:37.378Z,4.50
2019-02-15T01:37:11.270Z,4.30
2019-02-15T01:39:46.092Z,4.60
2019-02-15T01:42:26.998Z,5.15
2019-02-15T01:45:18.228Z,4.62
2019-02-15T01:47:50.623Z,4.53
2019-02-15T01:50:22.887Z,4.08
2019-02-15T01:52:55.130Z,4.87
2019-02-15T01:55:27.413Z,4.42
2019-02-15T01:57:59.735Z,4.42
2019-02-15T02:00:32.666Z,4.45
2019-02-15T02:03:04.888Z,4.75
2019-02-15T02:05:37.291Z,4.25
2019-02-15T02:08:11.147Z,4.03
2019-02-15T02:10:43.476Z,4.12
2019-02-15T02:13:15.687Z,3.83
2019-02-15T02:15:48.010Z,3.85
2019-02-15T02:18:20.250Z,4.17
2019-02-15T02:20:52.506Z,4.35
2019-02-15T02:23:24.745Z,4.45
2019-02-15T02:25:56.972Z,3.97
2019-02-15T02:28:29.305Z,3.75
2019-02-15T02:31:01.626Z,4.08
2019-02-15T02:33:33.980Z,4.35
2019-02-15T02:36:06.228Z,4.20
2019-02-15T02:38:38.458Z,3.52
2019-02-15T02:41:10.686Z,3.52
2019-02-15T02:43:42.956Z,4.30
2019-02-15T02:46:15.286Z,4.08
2019-02-15T02:48:47.528Z,3.95
2019-02-15T02:51:19.876Z,4.28
2019-02-15T02:53:52.138Z,4.25
2019-02-15T02:56:24.401Z,3.58
2019-02-15T02:58:56.652Z,3.47
2019-02-15T03:01:29.140Z,4.08
2019-02-15T03:04:01.360Z,3.80
2019-02-15T03:06:33.703Z,4.15
2019-02-15T03:09:07.589Z,3.75
2019-02-15T03:11:39.830Z,3.40
2019-02-15T03:14:12.105Z,3.60
2019-02-15T03:16:44.397Z,3.50
2019-02-15T03:19:16.666Z,3.90
2019-02-15T03:21:48.950Z,3.58
2019-02-15T03:24:21.178Z,3.45
2019-02-15T03:26:53.423Z,3.60
2019-02-15T03:29:25.662Z,3.08
2019-02-15T03:31:57.913Z,3.65
2019-02-15T03:34:30.125Z,4.10
2019-02-15T03:37:18.845Z,4.75
2019-02-15T03:39:52.732Z,4.73
2019-02-15T03:42:25.052Z,4.35
2019-02-15T03:44:57.292Z,5.50
2019-02-15T03:47:29.553Z,5.33
2019-02-15T03:50:04.703Z,5.47
2019-02-15T03:52:36.239Z,5.75
2019-02-15T03:55:08.542Z,5.67
2019-02-15T03:57:40.975Z,5.85
2019-02-15T04:00:13.235Z,5.50
2019-02-15T04:02:45.466Z,6.05
2019-02-15T04:05:17.696Z,6.12
2019-02-15T04:07:49.945Z,5.60
2019-02-15T04:10:22.241Z,5.95
2019-02-15T04:12:54.473Z,5.80
2019-02-15T04:15:26.717Z,5.65
2019-02-15T04:17:58.955Z,6.00
2019-02-15T04:20:31.219Z,5.30
2019-02-15T04:23:03.537Z,5.53
2019-02-15T04:25:35.805Z,5.33
2019-02-15T04:28:08.036Z,5.30
2019-02-15T04:30:41.001Z,5.50
2019-02-15T04:33:13.306Z,5.45
2019-02-15T04:35:45.549Z,4.55
2019-02-15T04:38:17.765Z,4.70
2019-02-15T04:40:50.017Z,4.28
2019-02-15T04:43:22.253Z,4.97
2019-02-15T04:45:54.499Z,5.08
2019-02-15T04:48:26.725Z,4.30
2019-02-15T04:50:59.004Z,5.33
2019-02-15T04:53:31.249Z,5.42
2019-02-15T04:56:03.643Z,5.75
2019-02-15T04:58:35.884Z,4.90
2019-02-15T05:01:08.144Z,4.12
2019-02-15T05:03:41.056Z,4.78
2019-02-15T05:06:14.131Z,4.50
2019-02-15T05:08:46.359Z,4.40
2019-02-15T05:11:18.728Z,5.10
2019-02-15T05:13:50.955Z,5.10
2019-02-15T05:16:23.208Z,5.40
2019-02-15T05:18:55.438Z,5.28
2019-02-15T05:21:27.688Z,5.40
2019-02-15T05:23:59.915Z,5.28
2019-02-15T05:26:32.168Z,5.50
2019-02-15T05:29:04.428Z,5.50
2019-02-15T05:31:36.689Z,5.47
2019-02-15T05:34:08.938Z,5.05
2019-02-15T05:36:41.227Z,5.30
2019-02-15T05:39:13.451Z,5.60
2019-02-15T05:41:45.707Z,6.12
2019-02-15T05:44:17.935Z,5.20
2019-02-15T05:46:50.214Z,5.05
2019-02-15T05:49:22.452Z,5.55
2019-02-15T05:51:54.721Z,5.15
2019-02-15T05:54:26.957Z,5.83
2019-02-15T05:56:59.195Z,5.55
2019-02-15T05:59:31.448Z,5.37
2019-02-15T06:02:03.685Z,5.53
2019-02-15T06:04:35.904Z,5.60
2019-02-15T06:07:08.152Z,5.45
2019-02-15T06:09:41.132Z,5.45
2019-02-15T06:12:14.400Z,5.28
2019-02-15T06:14:46.622Z,5.60
2019-02-15T06:17:18.864Z,5.45
2019-02-15T06:19:51.093Z,5.60
2019-02-15T06:22:23.339Z,5.95
2019-02-15T06:24:55.577Z,5.40
2019-02-15T06:27:27.844Z,5.97
2019-02-15T06:30:00.243Z,5.22
2019-02-15T06:32:32.608Z,6.25
2019-02-15T06:35:04.910Z,6.60
2019-02-15T06:37:37.259Z,6.85
2019-02-15T06:40:09.497Z,6.80
2019-02-15T06:42:41.772Z,5.50
2019-02-15T06:45:14.011Z,6.05
2019-02-15T06:47:46.248Z,6.50
2019-02-15T06:50:18.499Z,5.70
2019-02-15T06:52:50.783Z,6.33
2019-02-15T06:55:23.015Z,5.67
2019-02-15T06:57:55.243Z,6.50
2019-02-15T07:00:34.833Z,5.75
2019-02-15T07:03:17.569Z,5.55
2019-02-15T07:05:49.794Z,5.78
2019-02-15T07:08:22.060Z,5.25
2019-02-15T07:10:54.280Z,5.37
2019-02-15T07:13:26.519Z,5.62
2019-02-15T07:15:58.764Z,5.78
2019-02-15T07:18:31.015Z,5.37
2019-02-15T07:21:03.242Z,5.28
2019-02-15T07:23:35.542Z,5.37
2019-02-15T07:26:07.822Z,4.78
2019-02-15T07:28:40.055Z,5.35
2019-02-15T07:31:12.270Z,4.70
2019-02-15T07:33:44.515Z,4.85
2019-02-15T07:36:16.752Z,4.80
2019-02-15T07:38:49.081Z,3.92
2019-02-15T07:41:21.441Z,4.60
2019-02-15T07:43:53.700Z,4.40
2019-02-15T07:46:25.936Z,4.60
2019-02-15T07:48:58.272Z,4.53
2019-02-15T07:51:30.552Z,4.33
2019-02-15T07:54:02.804Z,4.37
2019-02-15T07:56:35.089Z,4.20
2019-02-15T07:59:07.331Z,4.85
2019-02-15T08:01:39.557Z,4.33
2019-02-15T08:04:11.805Z,5.45
2019-02-15T08:06:44.050Z,5.20
2019-02-15T08:09:16.326Z,4.97
2019-02-15T08:11:48.544Z,6.13
2019-02-15T08:14:20.785Z,6.00
2019-02-15T08:16:53.022Z,5.67
2019-02-15T08:19:25.290Z,6.22
2019-02-15T08:21:57.513Z,5.70
2019-02-15T08:24:29.759Z,4.70
2019-02-15T08:27:01.991Z,5.35
2019-02-15T08:29:34.224Z,4.85
2019-02-15T08:32:06.473Z,5.17
2019-02-15T08:34:38.739Z,5.78
2019-02-15T08:37:10.968Z,5.33
2019-02-15T08:39:43.238Z,5.62
2019-02-15T08:42:15.457Z,6.45
2019-02-15T08:44:47.708Z,5.78
2019-02-15T08:47:19.938Z,5.45
2019-02-15T08:49:52.183Z,5.40
2019-02-15T08:52:24.509Z,5.70
2019-02-15T08:54:56.764Z,6.35
2019-02-15T08:57:28.991Z,6.92
2019-02-15T09:00:01.242Z,5.05
2019-02-15T09:02:33.471Z,6.17
2019-02-15T09:05:06.852Z,6.20
2019-02-15T09:07:39.142Z,6.37
2019-02-15T09:10:12.920Z,6.47
2019-02-15T09:12:45.169Z,6.03
2019-02-15T09:15:21.592Z,5.70
2019-02-15T09:17:53.843Z,6.08
2019-02-15T09:20:26.074Z,5.35
2019-02-15T09:22:58.310Z,5.70
2019-02-15T09:25:30.546Z,5.95
2019-02-15T09:28:13.400Z,6.10
2019-02-15T09:30:47.330Z,6.75
2019-02-15T09:33:19.580Z,7.72
2019-02-15T09:35:51.840Z,7.72
2019-02-15T09:38:24.069Z,7.55
2019-02-15T09:40:56.320Z,5.90
2019-02-15T09:43:28.553Z,6.85
2019-02-15T09:46:00.793Z,7.95
2019-02-15T09:48:33.040Z,7.50
2019-02-15T09:51:05.296Z,7.55
2019-02-15T09:53:37.519Z,6.65
2019-02-15T09:56:09.774Z,7.17
2019-02-15T09:58:41.977Z,6.78
2019-02-15T10:01:14.274Z,7.45
2019-02-15T10:03:46.596Z,6.90
2019-02-15T10:06:18.825Z,6.12
2019-02-15T10:08:51.089Z,6.33
2019-02-15T10:11:23.340Z,6.75
2019-02-15T10:13:55.586Z,7.33
2019-02-15T10:16:30.761Z,8.85
2019-02-15T10:19:01.777Z,7.87
2019-02-15T10:21:33.995Z,7.55
2019-02-15T10:24:06.265Z,7.42
2019-02-15T10:26:38.507Z,9.98
2019-02-15T10:29:10.759Z,8.80
2019-02-15T10:31:43.002Z,9.68
2019-02-15T10:34:15.249Z,9.10
2019-02-15T10:36:47.523Z,9.10
2019-02-15T10:39:19.755Z,8.88
2019-02-15T10:41:51.988Z,8.55
2019-02-15T10:44:26.182Z,7.97
2019-02-15T10:46:58.183Z,8.00
2019-02-15T10:49:30.435Z,8.58
2019-02-15T10:52:02.670Z,9.43
2019-02-15T10:54:34.920Z,8.50
2019-02-15T10:57:07.156Z,8.00
2019-02-15T10:59:39.447Z,7.37
2019-02-15T11:02:11.729Z,8.00
2019-02-15T11:04:44.005Z,7.42
2019-02-15T11:07:16.230Z,8.10
2019-02-15T11:09:48.488Z,7.75
2019-02-15T11:12:20.718Z,8.08
2019-02-15T11:14:52.983Z,7.80
2019-02-15T11:17:25.214Z,8.05
2019-02-15T11:19:57.492Z,7.03
2019-02-15T11:22:29.729Z,7.80
2019-02-15T11:25:01.979Z,7.78
2019-02-15T11:27:34.195Z,5.20
2019-02-15T11:30:13.603Z,5.95
2019-02-15T11:32:45.831Z,7.50
2019-02-15T11:35:18.084Z,6.50
2019-02-15T11:37:50.306Z,6.08
2019-02-15T11:40:22.585Z,6.35
2019-02-15T11:42:54.830Z,5.17
2019-02-15T11:45:27.083Z,6.45
2019-02-15T11:47:59.282Z,5.50
2019-02-15T11:50:31.545Z,5.58
2019-02-15T11:53:03.813Z,5.53
2019-02-15T11:55:36.120Z,5.72
2019-02-15T11:58:08.367Z,5.15
2019-02-15T12:00:40.603Z,5.92
2019-02-15T12:03:12.882Z,5.17
2019-02-15T12:05:45.116Z,5.67
2019-02-15T12:08:17.351Z,5.08
2019-02-15T12:10:49.594Z,5.75
2019-02-15T12:13:21.936Z,5.80
2019-02-15T12:15:54.191Z,4.40
2019-02-15T12:18:26.415Z,5.25
2019-02-15T12:20:58.666Z,4.70
2019-02-15T12:23:30.892Z,5.67
2019-02-15T12:26:04.196Z,4.53
2019-02-15T12:28:36.424Z,4.90
2019-02-15T12:31:08.692Z,4.70
2019-02-15T12:33:41.588Z,4.40
2019-02-15T12:36:13.841Z,4.78
2019-02-15T12:38:46.078Z,4.72
2019-02-15T12:41:18.318Z,3.40
2019-02-15T12:43:50.560Z,4.87
2019-02-15T12:46:22.826Z,4.55
2019-02-15T12:48:55.033Z,3.85
2019-02-15T12:51:27.316Z,4.00
2019-02-15T12:53:59.620Z,4.60
2019-02-15T12:56:31.871Z,3.80
2019-02-15T12:59:04.107Z,3.87
2019-02-15T13:01:36.355Z,3.92
2019-02-15T13:04:08.586Z,3.25
2019-02-15T13:06:40.845Z,3.87
2019-02-15T13:09:15.023Z,2.72
2019-02-15T13:11:47.278Z,3.52
2019-02-15T13:14:19.496Z,3.60
2019-02-15T13:16:51.746Z,3.90
2019-02-15T13:19:23.985Z,3.12
2019-02-15T13:21:56.254Z,3.42
2019-02-15T13:24:28.515Z,3.62
2019-02-15T13:27:01.742Z,4.03
2019-02-15T13:29:33.966Z,3.25
2019-02-15T13:32:06.234Z,2.55
2019-02-15T13:34:38.446Z,3.50
2019-02-15T13:37:10.708Z,3.33
2019-02-15T13:39:42.997Z,2.90
2019-02-15T13:42:15.279Z,3.52
2019-02-15T13:44:47.556Z,3.70
2019-02-15T13:47:19.791Z,3.40
2019-02-15T13:49:52.034Z,3.25
2019-02-15T13:52:24.500Z,3.70
2019-02-15T13:54:56.789Z,3.92
2019-02-15T13:57:29.042Z,3.40
2019-02-15T14:00:01.281Z,3.25
2019-02-15T14:02:33.748Z,3.17
2019-02-15T14:05:09.123Z,4.10
2019-02-15T14:07:41.758Z,3.58
2019-02-15T14:10:14.354Z,3.33
2019-02-15T14:12:46.610Z,4.00
2019-02-15T14:15:18.834Z,3.37
2019-02-15T14:17:51.103Z,4.03
2019-02-15T14:20:23.359Z,4.08
2019-02-15T14:22:55.594Z,4.17
2019-02-15T14:25:27.819Z,4.05
2019-02-15T14:28:00.067Z,4.17
2019-02-15T14:30:32.292Z,3.72
2019-02-15T14:33:04.596Z,3.92
2019-02-15T14:35:36.832Z,3.80
2019-02-15T14:38:09.080Z,3.40
2019-02-15T14:40:41.787Z,3.00
2019-02-15T14:43:14.077Z,3.15
2019-02-15T14:45:46.377Z,3.45
2019-02-15T14:48:20.050Z,3.20
2019-02-15T14:50:52.462Z,4.37
2019-02-15T14:53:24.687Z,4.08
2019-02-15T14:55:56.903Z,3.50
2019-02-15T14:58:29.147Z,3.67
2019-02-15T15:01:01.475Z,4.25
2019-02-15T15:03:33.736Z,4.28
2019-02-15T15:06:06.900Z,4.08
2019-02-15T15:08:39.158Z,2.92
2019-02-15T15:11:11.381Z,4.00
2019-02-15T15:13:43.716Z,4.30
2019-02-15T15:16:15.940Z,3.40
2019-02-15T15:18:48.272Z,4.53
2019-02-15T15:21:20.508Z,3.67
2019-02-15T15:23:52.776Z,3.15
2019-02-15T15:26:25.007Z,3.52
2019-02-15T15:28:57.737Z,3.83
2019-02-15T15:31:29.950Z,4.40
2019-02-15T15:34:02.239Z,4.33
2019-02-15T15:36:34.462Z,4.10
2019-02-15T15:39:06.736Z,3.90
2019-02-15T15:41:39.573Z,3.22
2019-02-15T15:44:11.929Z,3.83
2019-02-15T15:46:44.160Z,3.17
2019-02-15T15:49:16.932Z,3.35
2019-02-15T15:51:49.271Z,3.95
2019-02-15T15:54:22.483Z,4.08
2019-02-15T15:56:55.655Z,4.33
2019-02-15T15:59:27.923Z,4.15
2019-02-15T16:02:00.160Z,4.47
2019-02-15T16:04:32.475Z,3.42
2019-02-15T16:07:04.730Z,4.62
2019-02-15T16:09:36.977Z,4.33
2019-02-15T16:12:09.200Z,3.80
2019-02-15T16:14:42.067Z,3.55
2019-02-15T16:17:14.311Z,4.80
2019-02-15T16:19:49.482Z,5.03
2019-02-15T16:22:20.545Z,4.20
2019-02-15T16:24:52.787Z,4.35
2019-02-15T16:27:25.095Z,4.33
2019-02-15T16:29:57.334Z,3.85
2019-02-15T16:32:29.572Z,3.80
2019-02-15T16:35:01.833Z,3.50
2019-02-15T16:37:34.165Z,3.27
2019-02-15T16:40:07.945Z,3.00
2019-02-15T16:42:40.258Z,2.98
2019-02-15T16:45:13.462Z,3.25
2019-02-15T16:47:45.709Z,3.20
2019-02-15T16:50:17.942Z,2.75
2019-02-15T16:52:50.197Z,2.67
2019-02-15T16:55:22.404Z,2.47
2019-02-15T16:57:54.644Z,2.37
2019-02-15T17:00:26.902Z,2.70
2019-02-15T17:02:59.141Z,2.50
2019-02-15T17:05:31.365Z,2.62
2019-02-15T17:08:03.618Z,2.55
2019-02-15T17:10:35.851Z,2.22
2019-02-15T17:13:08.114Z,2.30
2019-02-15T17:15:40.354Z,3.10
2019-02-15T17:18:12.600Z,2.83
2019-02-15T17:20:44.852Z,2.45
2019-02-15T17:23:17.147Z,1.57
2019-02-15T17:25:49.519Z,1.57
2019-02-15T17:28:21.762Z,1.40
2019-02-15T17:30:54.160Z,1.37
2019-02-15T17:33:26.461Z,1.62
2019-02-15T17:35:58.680Z,1.70
2019-02-15T17:38:31.820Z,1.50
2019-02-15T17:41:04.228Z,2.15
2019-02-15T17:43:36.464Z,2.22
2019-02-15T17:46:08.708Z,1.87
2019-02-15T17:48:41.943Z,1.92
2019-02-15T17:51:14.264Z,1.65
2019-02-15T17:53:46.539Z,1.70
2019-02-15T17:56:18.833Z,1.30
2019-02-15T17:58:54.979Z,1.37
2019-02-15T18:01:27.228Z,1.62
2019-02-15T18:04:00.526Z,1.40
2019-02-15T18:06:32.788Z,1.55
2019-02-15T18:09:05.475Z,1.60
2019-02-15T18:11:37.760Z,1.82
2019-02-15T18:14:11.939Z,2.25
2019-02-15T18:16:44.187Z,2.60
2019-02-15T18:19:17.385Z,3.22
2019-02-15T18:21:49.624Z,2.85
2019-02-15T18:24:22.801Z,3.08
2019-02-15T18:26:58.049Z,3.08
2019-02-15T18:29:31.232Z,3.02
2019-02-15T18:32:03.464Z,2.70
2019-02-15T18:34:37.606Z,2.83
2019-02-15T18:37:09.949Z,3.08
2019-02-15T18:39:42.200Z,2.80
2019-02-15T18:42:14.454Z,4.00
2019-02-15T18:44:46.706Z,3.67
2019-02-15T18:47:19.021Z,4.70
2019-02-15T18:49:51.294Z,4.27
2019-02-15T18:52:23.590Z,4.60
2019-02-15T18:54:56.133Z,4.62
2019-02-15T18:57:28.527Z,5.00
2019-02-15T19:00:00.765Z,5.87
2019-02-15T19:02:33.016Z,5.70
2019-02-15T19:05:06.947Z,5.90
2019-02-15T19:07:39.228Z,6.20
2019-02-15T19:10:12.752Z,6.35
2019-02-15T19:12:44.982Z,5.50
2019-02-15T19:15:17.288Z,4.30
2019-02-15T19:17:49.516Z,4.53
2019-02-15T19:20:21.775Z,4.15
2019-02-15T19:22:54.000Z,5.00
2019-02-15T19:25:26.254Z,4.55
2019-02-15T19:27:58.748Z,5.55
2019-02-15T19:30:32.575Z,5.97
2019-02-15T19:33:04.984Z,5.55
2019-02-15T19:35:37.287Z,4.70
2019-02-15T19:38:09.512Z,5.70
2019-02-15T19:40:44.838Z,5.58
2019-02-15T19:43:17.061Z,4.35
2019-02-15T19:45:50.359Z,4.80
2019-02-15T19:48:22.798Z,5.17
2019-02-15T19:50:55.059Z,4.65
2019-02-15T19:53:27.304Z,4.70
2019-02-15T19:55:59.573Z,4.63
2019-02-15T19:58:31.792Z,5.17
2019-02-15T20:01:04.043Z,4.78
2019-02-15T20:03:36.491Z,5.30
2019-02-15T20:06:09.665Z,4.97
2019-02-15T20:08:44.169Z,4.80
2019-02-15T20:11:16.406Z,5.12
2019-02-15T20:13:50.556Z,5.30
2019-02-15T20:16:22.915Z,5.58
2019-02-15T20:18:55.132Z,5.10
2019-02-15T20:21:28.273Z,5.00
2019-02-15T20:24:00.522Z,5.05
2019-02-15T20:26:33.743Z,4.85
2019-02-15T20:29:06.183Z,5.00
2019-02-15T20:31:38.693Z,5.60
2019-02-15T20:34:10.919Z,5.08
2019-02-15T20:36:43.156Z,6.10
2019-02-15T20:39:15.382Z,5.85
2019-02-15T20:41:47.631Z,5.35
2019-02-15T20:44:19.846Z,6.10
2019-02-15T20:46:52.145Z,5.90
2019-02-15T20:49:24.467Z,6.40
2019-02-15T20:52:02.429Z,5.78
2019-02-15T20:54:34.806Z,6.25
2019-02-15T20:57:07.064Z,5.87
2019-02-15T20:59:39.438Z,5.90
2019-02-15T21:02:11.690Z,6.00
2019-02-15T21:04:45.816Z,5.92
2019-02-15T21:07:18.090Z,6.12
2019-02-15T21:09:52.307Z,5.55
2019-02-15T21:12:24.548Z,5.60
2019-02-15T21:14:56.781Z,5.53
2019-02-15T21:17:29.038Z,5.58
2019-02-15T21:20:07.215Z,5.92
2019-02-15T21:22:36.131Z,6.20
2019-02-15T21:25:09.730Z,5.70
2019-02-15T21:27:42.318Z,5.70
2019-02-15T21:30:16.171Z,6.05
2019-02-15T21:32:49.352Z,6.33
2019-02-15T21:35:21.566Z,6.92
2019-02-15T21:37:53.825Z,6.60
2019-02-15T21:40:26.038Z,6.55
2019-02-15T21:42:58.283Z,6.65
2019-02-15T21:45:30.534Z,6.97
2019-02-15T21:48:02.819Z,6.25
2019-02-15T21:50:35.054Z,5.65
2019-02-15T21:53:07.435Z,6.40
2019-02-15T21:55:39.707Z,7.08
2019-02-15T21:58:11.985Z,6.12
2019-02-15T22:00:44.228Z,5.95
2019-02-15T22:03:16.476Z,6.35
2019-02-15T22:05:48.931Z,6.07
2019-02-15T22:08:21.180Z,6.65
2019-02-15T22:10:53.467Z,5.75
2019-02-15T22:13:25.720Z,5.78
2019-02-15T22:15:57.953Z,5.97
2019-02-15T22:18:30.227Z,6.00
2019-02-15T22:21:02.450Z,5.78
2019-02-15T22:23:34.690Z,5.90
2019-02-15T22:26:06.945Z,6.47
2019-02-15T22:28:39.206Z,5.67
2019-02-15T22:31:12.017Z,5.75
2019-02-15T22:33:44.340Z,5.33
2019-02-15T22:36:16.662Z,5.85
2019-02-15T22:38:48.992Z,6.33
2019-02-15T22:41:21.231Z,5.95
2019-02-15T22:43:53.585Z,6.05
2019-02-15T22:46:25.820Z,6.30
2019-02-15T22:48:58.074Z,5.80
2019-02-15T22:51:31.310Z,5.80
2019-02-15T22:54:03.657Z,7.35
2019-02-15T22:56:35.882Z,6.83
2019-02-15T22:59:08.282Z,5.87
2019-02-15T23:01:40.740Z,6.05
2019-02-15T23:04:13.008Z,6.40
2019-02-15T23:06:45.229Z,5.47
2019-02-15T23:09:24.522Z,5.70
2019-02-15T23:11:56.817Z,5.75
2019-02-15T23:14:29.110Z,6.53
2019-02-15T23:17:01.342Z,6.85
2019-02-15T23:19:33.615Z,5.17
2019-02-15T23:22:05.850Z,6.67
2019-02-15T23:24:38.159Z,6.35
2019-02-15T23:27:10.387Z,6.40
2019-02-15T23:29:42.826Z,6.15
2019-02-15T23:32:15.048Z,6.08
2019-02-15T23:34:47.316Z,5.78
2019-02-15T23:37:19.600Z,5.72
2019-02-15T23:39:51.851Z,6.42
2019-02-15T23:42:24.161Z,6.53
2019-02-15T23:44:56.408Z,6.42
2019-02-15T23:47:28.659Z,6.50
2019-02-15T23:50:00.945Z,5.60
2019-02-15T23:52:33.211Z,6.95
2019-02-15T23:55:05.518Z,6.70
2019-02-15T23:57:37.782Z,7.28
